メインページ
METAR-TAF:

METAR-TAF

空港 :

カラカス, ベネズエラ

シモン・ボリバル国際空港

緯度: 10-36N, 経度: 066-59W, 海抜: 43m

現時点の気象観測

当レポートは26分前の16:00(UTC)に作成
気温 31°C
湿度 71%
気圧 1010 hPa
視程10km以上
高度1600ftの雲はほとんどない

METAR: SVMI 221600Z /////KT 9999 FEW016 31/25 Q1010

時間: 12:26 (16:26 UTC)

予報

当レポートは6時間26分前の10:00(UTC)に作成
予報は22日の 12時(UTC)から 23日の 12時(UTC)まで有効
北東の風 10kt
視程10km以上
高度1600ftの雲は散在している
22日の 12時(UTC)から 22日の 16時(UTC)まで徐々に
の風 7kt
高度1300ftの雲は散在している

TAF: SVMI 221000Z 2212/2312 05010KT 9999 SCT016 TX33/18Z TN25/09Z BECMG 2212/2216 10007KT SCT013

4,000以上の空港の気象観測と天気予報(METAR報とTAF報)

利用可能な観測所は地図上に黄色い丸と赤い丸で示す。

丸の上にカーソルを重ねると観測所名を参照できる。

次にクリックすると気象観測と天気予報を参照できる。

マップの切り替え:黒色「×」印の緑ボタンをクリックして拡大、「-」印の緑ボタンをクリックして縮小、緑色の三角印をクリックして隣りの地図に切り替え


METAR-TAF: